sensor_id;sensor_type;location;lat;lon;timestamp;P1;durP1;ratioP1;P2;durP2;ratioP2
7575;SDS011;3829;50.798;4.358;2022-11-20T00:00:48;85.17;;;33.47;;
7575;SDS011;3829;50.798;4.358;2022-11-20T00:03:14;76.50;;;33.37;;
7575;SDS011;3829;50.798;4.358;2022-11-20T00:05:40;81.80;;;35.07;;
7575;SDS011;3829;50.798;4.358;2022-11-20T00:08:05;80.10;;;34.70;;
7575;SDS011;3829;50.798;4.358;2022-11-20T00:10:31;85.00;;;33.97;;
7575;SDS011;3829;50.798;4.358;2022-11-20T00:12:59;88.13;;;36.33;;
7575;SDS011;3829;50.798;4.358;2022-11-20T00:15:25;88.03;;;35.90;;
7575;SDS011;3829;50.798;4.358;2022-11-20T00:17:51;81.63;;;35.70;;
7575;SDS011;3829;50.798;4.358;2022-11-20T00:20:16;76.67;;;35.33;;
7575;SDS011;3829;50.798;4.358;2022-11-20T00:22:42;86.43;;;36.97;;
7575;SDS011;3829;50.798;4.358;2022-11-20T00:25:08;87.03;;;35.33;;
7575;SDS011;3829;50.798;4.358;2022-11-20T00:27:33;71.63;;;34.17;;
7575;SDS011;3829;50.798;4.358;2022-11-20T00:29:59;73.97;;;32.47;;
7575;SDS011;3829;50.798;4.358;2022-11-20T00:32:25;72.73;;;32.67;;
7575;SDS011;3829;50.798;4.358;2022-11-20T00:34:50;76.90;;;33.90;;
7575;SDS011;3829;50.798;4.358;2022-11-20T00:37:16;72.97;;;32.17;;
7575;SDS011;3829;50.798;4.358;2022-11-20T00:39:41;73.77;;;33.43;;
7575;SDS011;3829;50.798;4.358;2022-11-20T00:42:07;61.50;;;31.47;;
7575;SDS011;3829;50.798;4.358;2022-11-20T00:44:32;72.43;;;33.77;;
7575;SDS011;3829;50.798;4.358;2022-11-20T00:46:58;65.33;;;32.07;;
7575;SDS011;3829;50.798;4.358;2022-11-20T00:49:23;69.63;;;32.13;;
7575;SDS011;3829;50.798;4.358;2022-11-20T00:51:49;66.57;;;34.10;;
7575;SDS011;3829;50.798;4.358;2022-11-20T00:54:15;76.43;;;33.87;;
7575;SDS011;3829;50.798;4.358;2022-11-20T00:56:40;69.83;;;33.33;;
7575;SDS011;3829;50.798;4.358;2022-11-20T00:59:08;72.17;;;33.70;;
7575;SDS011;3829;50.798;4.358;2022-11-20T01:01:34;74.93;;;34.67;;
7575;SDS011;3829;50.798;4.358;2022-11-20T01:04:01;72.90;;;31.67;;
7575;SDS011;3829;50.798;4.358;2022-11-20T01:06:31;72.77;;;31.87;;
7575;SDS011;3829;50.798;4.358;2022-11-20T01:09:03;64.73;;;30.30;;
7575;SDS011;3829;50.798;4.358;2022-11-20T01:11:37;68.30;;;31.43;;
7575;SDS011;3829;50.798;4.358;2022-11-20T01:14:05;72.40;;;31.97;;
7575;SDS011;3829;50.798;4.358;2022-11-20T01:16:35;63.73;;;31.07;;
7575;SDS011;3829;50.798;4.358;2022-11-20T01:19:03;65.27;;;31.60;;
7575;SDS011;3829;50.798;4.358;2022-11-20T01:21:31;64.13;;;30.87;;
7575;SDS011;3829;50.798;4.358;2022-11-20T01:23:58;61.17;;;30.03;;
7575;SDS011;3829;50.798;4.358;2022-11-20T01:26:25;57.20;;;30.80;;
7575;SDS011;3829;50.798;4.358;2022-11-20T01:28:56;59.57;;;30.43;;
7575;SDS011;3829;50.798;4.358;2022-11-20T01:31:23;61.10;;;29.57;;
7575;SDS011;3829;50.798;4.358;2022-11-20T01:33:55;72.63;;;31.13;;
7575;SDS011;3829;50.798;4.358;2022-11-20T01:36:22;58.83;;;29.47;;
7575;SDS011;3829;50.798;4.358;2022-11-20T01:38:56;58.40;;;29.90;;
7575;SDS011;3829;50.798;4.358;2022-11-20T01:41:24;73.63;;;31.07;;
7575;SDS011;3829;50.798;4.358;2022-11-20T01:44:10;66.27;;;31.17;;
7575;SDS011;3829;50.798;4.358;2022-11-20T01:46:38;64.00;;;31.60;;
7575;SDS011;3829;50.798;4.358;2022-11-20T01:51:50;68.50;;;31.70;;
7575;SDS011;3829;50.798;4.358;2022-11-20T01:54:22;70.57;;;30.67;;
7575;SDS011;3829;50.798;4.358;2022-11-20T01:57:04;64.30;;;30.37;;
7575;SDS011;3829;50.798;4.358;2022-11-20T01:59:34;67.93;;;31.30;;
7575;SDS011;3829;50.798;4.358;2022-11-20T02:02:06;66.83;;;31.27;;
7575;SDS011;3829;50.798;4.358;2022-11-20T02:04:32;66.33;;;31.50;;
7575;SDS011;3829;50.798;4.358;2022-11-20T02:06:59;61.60;;;28.73;;
7575;SDS011;3829;50.798;4.358;2022-11-20T02:09:26;67.33;;;31.13;;
7575;SDS011;3829;50.798;4.358;2022-11-20T02:11:52;67.23;;;32.03;;
7575;SDS011;3829;50.798;4.358;2022-11-20T02:14:18;68.23;;;30.10;;
7575;SDS011;3829;50.798;4.358;2022-11-20T02:16:46;66.07;;;30.20;;
7575;SDS011;3829;50.798;4.358;2022-11-20T02:19:22;63.53;;;28.93;;
7575;SDS011;3829;50.798;4.358;2022-11-20T02:24:21;62.30;;;29.50;;
7575;SDS011;3829;50.798;4.358;2022-11-20T02:29:24;64.60;;;30.30;;
7575;SDS011;3829;50.798;4.358;2022-11-20T02:32:21;67.27;;;29.57;;
7575;SDS011;3829;50.798;4.358;2022-11-20T02:34:54;67.57;;;29.43;;
7575;SDS011;3829;50.798;4.358;2022-11-20T02:37:20;63.33;;;28.73;;
7575;SDS011;3829;50.798;4.358;2022-11-20T02:39:47;64.63;;;28.70;;
7575;SDS011;3829;50.798;4.358;2022-11-20T02:42:14;73.90;;;27.97;;
7575;SDS011;3829;50.798;4.358;2022-11-20T02:44:40;65.07;;;28.20;;
7575;SDS011;3829;50.798;4.358;2022-11-20T02:47:06;65.80;;;29.77;;
7575;SDS011;3829;50.798;4.358;2022-11-20T02:49:32;65.17;;;29.87;;
7575;SDS011;3829;50.798;4.358;2022-11-20T02:51:58;67.23;;;28.27;;
7575;SDS011;3829;50.798;4.358;2022-11-20T02:54:24;59.97;;;28.73;;
7575;SDS011;3829;50.798;4.358;2022-11-20T02:56:50;56.03;;;26.33;;
7575;SDS011;3829;50.798;4.358;2022-11-20T02:59:16;64.63;;;26.40;;
7575;SDS011;3829;50.798;4.358;2022-11-20T03:01:42;55.80;;;26.50;;
7575;SDS011;3829;50.798;4.358;2022-11-20T03:04:07;56.70;;;26.63;;
7575;SDS011;3829;50.798;4.358;2022-11-20T03:06:33;44.90;;;24.47;;
7575;SDS011;3829;50.798;4.358;2022-11-20T03:08:58;59.00;;;25.63;;
7575;SDS011;3829;50.798;4.358;2022-11-20T03:11:24;54.27;;;24.97;;
7575;SDS011;3829;50.798;4.358;2022-11-20T03:13:50;51.60;;;22.40;;
7575;SDS011;3829;50.798;4.358;2022-11-20T03:16:17;50.53;;;24.93;;
7575;SDS011;3829;50.798;4.358;2022-11-20T03:18:46;61.70;;;23.77;;
7575;SDS011;3829;50.798;4.358;2022-11-20T03:21:12;50.47;;;24.57;;
7575;SDS011;3829;50.798;4.358;2022-11-20T03:23:39;52.67;;;24.27;;
7575;SDS011;3829;50.798;4.358;2022-11-20T03:26:13;56.80;;;25.03;;
7575;SDS011;3829;50.798;4.358;2022-11-20T03:28:54;48.63;;;24.00;;
7575;SDS011;3829;50.798;4.358;2022-11-20T03:31:22;51.47;;;24.00;;
7575;SDS011;3829;50.798;4.358;2022-11-20T03:33:52;48.27;;;23.13;;
7575;SDS011;3829;50.798;4.358;2022-11-20T03:36:18;53.17;;;23.80;;
7575;SDS011;3829;50.798;4.358;2022-11-20T03:38:45;57.43;;;25.63;;
7575;SDS011;3829;50.798;4.358;2022-11-20T03:41:22;59.70;;;24.87;;
7575;SDS011;3829;50.798;4.358;2022-11-20T03:43:53;52.27;;;22.70;;
7575;SDS011;3829;50.798;4.358;2022-11-20T03:46:21;51.70;;;23.67;;
7575;SDS011;3829;50.798;4.358;2022-11-20T03:48:46;52.90;;;24.03;;
7575;SDS011;3829;50.798;4.358;2022-11-20T03:51:13;53.07;;;23.37;;
7575;SDS011;3829;50.798;4.358;2022-11-20T03:53:41;53.40;;;24.30;;
7575;SDS011;3829;50.798;4.358;2022-11-20T03:56:09;52.17;;;24.87;;
7575;SDS011;3829;50.798;4.358;2022-11-20T03:58:36;53.87;;;25.60;;
7575;SDS011;3829;50.798;4.358;2022-11-20T04:01:06;52.00;;;24.17;;
7575;SDS011;3829;50.798;4.358;2022-11-20T04:03:43;52.90;;;24.20;;
7575;SDS011;3829;50.798;4.358;2022-11-20T04:06:14;47.93;;;22.60;;
7575;SDS011;3829;50.798;4.358;2022-11-20T04:08:44;46.63;;;22.97;;
7575;SDS011;3829;50.798;4.358;2022-11-20T04:11:11;48.17;;;22.40;;
7575;SDS011;3829;50.798;4.358;2022-11-20T04:13:41;47.27;;;21.77;;
7575;SDS011;3829;50.798;4.358;2022-11-20T04:16:10;46.43;;;21.97;;
7575;SDS011;3829;50.798;4.358;2022-11-20T04:18:36;57.27;;;25.87;;
7575;SDS011;3829;50.798;4.358;2022-11-20T04:21:02;49.57;;;23.87;;
7575;SDS011;3829;50.798;4.358;2022-11-20T04:23:29;52.83;;;24.20;;
7575;SDS011;3829;50.798;4.358;2022-11-20T04:25:55;59.40;;;24.47;;
7575;SDS011;3829;50.798;4.358;2022-11-20T04:28:27;55.40;;;23.50;;
7575;SDS011;3829;50.798;4.358;2022-11-20T04:30:52;59.43;;;26.20;;
7575;SDS011;3829;50.798;4.358;2022-11-20T04:33:18;57.70;;;25.23;;
7575;SDS011;3829;50.798;4.358;2022-11-20T04:35:43;64.97;;;26.03;;
7575;SDS011;3829;50.798;4.358;2022-11-20T04:38:12;57.37;;;24.43;;
7575;SDS011;3829;50.798;4.358;2022-11-20T04:40:38;67.60;;;27.87;;
7575;SDS011;3829;50.798;4.358;2022-11-20T04:43:03;65.43;;;26.70;;
7575;SDS011;3829;50.798;4.358;2022-11-20T04:45:29;66.80;;;26.67;;
7575;SDS011;3829;50.798;4.358;2022-11-20T04:47:54;55.77;;;26.17;;
7575;SDS011;3829;50.798;4.358;2022-11-20T04:50:20;71.40;;;28.07;;
7575;SDS011;3829;50.798;4.358;2022-11-20T04:52:45;69.87;;;25.57;;
7575;SDS011;3829;50.798;4.358;2022-11-20T04:55:11;64.23;;;26.40;;
7575;SDS011;3829;50.798;4.358;2022-11-20T04:57:36;63.07;;;27.63;;
7575;SDS011;3829;50.798;4.358;2022-11-20T05:00:03;71.23;;;27.40;;
7575;SDS011;3829;50.798;4.358;2022-11-20T05:02:30;80.33;;;28.60;;
7575;SDS011;3829;50.798;4.358;2022-11-20T05:04:56;77.23;;;28.97;;
7575;SDS011;3829;50.798;4.358;2022-11-20T05:07:22;79.63;;;28.97;;
7575;SDS011;3829;50.798;4.358;2022-11-20T05:09:47;77.50;;;27.70;;
7575;SDS011;3829;50.798;4.358;2022-11-20T05:12:13;74.07;;;28.70;;
7575;SDS011;3829;50.798;4.358;2022-11-20T05:14:39;79.90;;;28.10;;
7575;SDS011;3829;50.798;4.358;2022-11-20T05:17:04;75.47;;;28.37;;
7575;SDS011;3829;50.798;4.358;2022-11-20T05:19:30;73.00;;;28.33;;
7575;SDS011;3829;50.798;4.358;2022-11-20T05:21:55;87.63;;;29.43;;
7575;SDS011;3829;50.798;4.358;2022-11-20T05:24:21;77.87;;;27.77;;
7575;SDS011;3829;50.798;4.358;2022-11-20T05:26:47;80.03;;;28.33;;
7575;SDS011;3829;50.798;4.358;2022-11-20T05:29:12;83.17;;;29.63;;
7575;SDS011;3829;50.798;4.358;2022-11-20T05:31:38;87.87;;;29.77;;
7575;SDS011;3829;50.798;4.358;2022-11-20T05:34:05;85.67;;;29.73;;
7575;SDS011;3829;50.798;4.358;2022-11-20T05:36:31;77.17;;;29.93;;
7575;SDS011;3829;50.798;4.358;2022-11-20T05:38:58;83.60;;;30.63;;
7575;SDS011;3829;50.798;4.358;2022-11-20T05:41:24;84.97;;;28.67;;
7575;SDS011;3829;50.798;4.358;2022-11-20T05:43:50;81.17;;;29.10;;
7575;SDS011;3829;50.798;4.358;2022-11-20T05:46:18;84.90;;;31.83;;
7575;SDS011;3829;50.798;4.358;2022-11-20T05:48:45;88.20;;;29.47;;
7575;SDS011;3829;50.798;4.358;2022-11-20T05:51:14;79.30;;;28.93;;
7575;SDS011;3829;50.798;4.358;2022-11-20T05:53:41;81.27;;;29.93;;
7575;SDS011;3829;50.798;4.358;2022-11-20T05:56:11;88.63;;;31.70;;
7575;SDS011;3829;50.798;4.358;2022-11-20T05:58:39;84.97;;;29.17;;
7575;SDS011;3829;50.798;4.358;2022-11-20T06:01:09;91.60;;;30.90;;
7575;SDS011;3829;50.798;4.358;2022-11-20T06:03:37;87.67;;;30.43;;
7575;SDS011;3829;50.798;4.358;2022-11-20T06:06:03;87.87;;;30.03;;
7575;SDS011;3829;50.798;4.358;2022-11-20T06:08:30;93.50;;;30.00;;
7575;SDS011;3829;50.798;4.358;2022-11-20T06:10:56;93.90;;;31.27;;
7575;SDS011;3829;50.798;4.358;2022-11-20T06:13:22;86.43;;;30.43;;
7575;SDS011;3829;50.798;4.358;2022-11-20T06:15:51;83.73;;;29.37;;
7575;SDS011;3829;50.798;4.358;2022-11-20T06:18:18;98.83;;;31.27;;
7575;SDS011;3829;50.798;4.358;2022-11-20T06:20:45;94.03;;;33.33;;
7575;SDS011;3829;50.798;4.358;2022-11-20T06:23:11;85.83;;;29.53;;
7575;SDS011;3829;50.798;4.358;2022-11-20T06:25:38;93.20;;;30.43;;
7575;SDS011;3829;50.798;4.358;2022-11-20T06:28:05;90.70;;;29.47;;
7575;SDS011;3829;50.798;4.358;2022-11-20T06:30:31;90.13;;;30.63;;
7575;SDS011;3829;50.798;4.358;2022-11-20T06:32:56;81.87;;;27.60;;
7575;SDS011;3829;50.798;4.358;2022-11-20T06:35:22;91.30;;;30.40;;
7575;SDS011;3829;50.798;4.358;2022-11-20T06:37:48;80.70;;;29.70;;
7575;SDS011;3829;50.798;4.358;2022-11-20T06:40:13;80.80;;;30.27;;
7575;SDS011;3829;50.798;4.358;2022-11-20T06:42:39;83.40;;;28.13;;
7575;SDS011;3829;50.798;4.358;2022-11-20T06:45:04;83.53;;;28.93;;
7575;SDS011;3829;50.798;4.358;2022-11-20T06:47:30;91.20;;;29.53;;
7575;SDS011;3829;50.798;4.358;2022-11-20T06:49:56;82.77;;;29.53;;
7575;SDS011;3829;50.798;4.358;2022-11-20T06:52:21;76.57;;;26.70;;
7575;SDS011;3829;50.798;4.358;2022-11-20T06:54:47;84.93;;;28.30;;
7575;SDS011;3829;50.798;4.358;2022-11-20T06:57:12;76.87;;;29.10;;
7575;SDS011;3829;50.798;4.358;2022-11-20T06:59:38;83.13;;;29.03;;
7575;SDS011;3829;50.798;4.358;2022-11-20T07:02:04;77.93;;;29.23;;
7575;SDS011;3829;50.798;4.358;2022-11-20T07:04:29;73.67;;;27.57;;
7575;SDS011;3829;50.798;4.358;2022-11-20T07:06:55;79.93;;;28.23;;
7575;SDS011;3829;50.798;4.358;2022-11-20T07:09:20;70.70;;;26.60;;
7575;SDS011;3829;50.798;4.358;2022-11-20T07:11:46;69.03;;;28.23;;
7575;SDS011;3829;50.798;4.358;2022-11-20T07:14:11;78.50;;;27.90;;
7575;SDS011;3829;50.798;4.358;2022-11-20T07:16:37;66.47;;;26.87;;
7575;SDS011;3829;50.798;4.358;2022-11-20T07:19:03;75.20;;;28.37;;
7575;SDS011;3829;50.798;4.358;2022-11-20T07:21:28;76.73;;;27.73;;
7575;SDS011;3829;50.798;4.358;2022-11-20T07:23:54;70.43;;;26.17;;
7575;SDS011;3829;50.798;4.358;2022-11-20T07:26:20;71.70;;;27.00;;
7575;SDS011;3829;50.798;4.358;2022-11-20T07:28:45;67.30;;;26.03;;
7575;SDS011;3829;50.798;4.358;2022-11-20T07:31:11;67.57;;;26.37;;
7575;SDS011;3829;50.798;4.358;2022-11-20T07:33:37;74.87;;;26.40;;
7575;SDS011;3829;50.798;4.358;2022-11-20T07:36:03;69.43;;;27.63;;
7575;SDS011;3829;50.798;4.358;2022-11-20T07:38:30;77.57;;;27.60;;
7575;SDS011;3829;50.798;4.358;2022-11-20T07:40:56;74.67;;;25.87;;
7575;SDS011;3829;50.798;4.358;2022-11-20T07:43:22;73.13;;;27.50;;
7575;SDS011;3829;50.798;4.358;2022-11-20T07:45:49;76.10;;;27.13;;
7575;SDS011;3829;50.798;4.358;2022-11-20T07:48:14;80.93;;;27.17;;
7575;SDS011;3829;50.798;4.358;2022-11-20T07:50:40;69.57;;;25.27;;
7575;SDS011;3829;50.798;4.358;2022-11-20T07:53:06;86.63;;;27.73;;
7575;SDS011;3829;50.798;4.358;2022-11-20T07:55:32;85.40;;;25.73;;
7575;SDS011;3829;50.798;4.358;2022-11-20T07:57:57;80.63;;;27.50;;
7575;SDS011;3829;50.798;4.358;2022-11-20T08:00:24;76.00;;;26.77;;
7575;SDS011;3829;50.798;4.358;2022-11-20T08:02:50;88.27;;;28.20;;
7575;SDS011;3829;50.798;4.358;2022-11-20T08:05:16;78.83;;;26.63;;
7575;SDS011;3829;50.798;4.358;2022-11-20T08:07:42;88.37;;;27.57;;
7575;SDS011;3829;50.798;4.358;2022-11-20T08:10:09;89.00;;;27.23;;
7575;SDS011;3829;50.798;4.358;2022-11-20T08:12:42;80.90;;;25.97;;
7575;SDS011;3829;50.798;4.358;2022-11-20T08:15:31;74.53;;;26.37;;
7575;SDS011;3829;50.798;4.358;2022-11-20T08:18:01;73.33;;;26.57;;
7575;SDS011;3829;50.798;4.358;2022-11-20T08:20:34;75.50;;;26.60;;
7575;SDS011;3829;50.798;4.358;2022-11-20T08:23:04;77.63;;;26.67;;
7575;SDS011;3829;50.798;4.358;2022-11-20T08:25:31;75.13;;;26.40;;
7575;SDS011;3829;50.798;4.358;2022-11-20T08:27:58;72.50;;;25.23;;
7575;SDS011;3829;50.798;4.358;2022-11-20T08:30:24;71.33;;;25.63;;
7575;SDS011;3829;50.798;4.358;2022-11-20T08:32:50;71.43;;;26.93;;
7575;SDS011;3829;50.798;4.358;2022-11-20T08:35:15;69.50;;;25.50;;
7575;SDS011;3829;50.798;4.358;2022-11-20T08:37:41;66.33;;;26.13;;
7575;SDS011;3829;50.798;4.358;2022-11-20T08:40:10;72.47;;;26.53;;
7575;SDS011;3829;50.798;4.358;2022-11-20T08:42:36;71.10;;;25.30;;
7575;SDS011;3829;50.798;4.358;2022-11-20T08:45:02;65.20;;;24.80;;
7575;SDS011;3829;50.798;4.358;2022-11-20T08:47:28;62.33;;;24.67;;
7575;SDS011;3829;50.798;4.358;2022-11-20T08:49:53;70.70;;;24.73;;
7575;SDS011;3829;50.798;4.358;2022-11-20T08:52:19;60.60;;;23.27;;
7575;SDS011;3829;50.798;4.358;2022-11-20T08:54:44;56.17;;;23.93;;
7575;SDS011;3829;50.798;4.358;2022-11-20T08:57:10;63.40;;;25.37;;
7575;SDS011;3829;50.798;4.358;2022-11-20T08:59:35;59.87;;;25.30;;
7575;SDS011;3829;50.798;4.358;2022-11-20T09:02:01;58.97;;;23.17;;
7575;SDS011;3829;50.798;4.358;2022-11-20T09:04:26;57.23;;;23.93;;
7575;SDS011;3829;50.798;4.358;2022-11-20T09:06:52;63.70;;;23.20;;
7575;SDS011;3829;50.798;4.358;2022-11-20T09:09:17;55.30;;;23.17;;
7575;SDS011;3829;50.798;4.358;2022-11-20T09:11:43;59.90;;;23.33;;
7575;SDS011;3829;50.798;4.358;2022-11-20T09:14:09;52.13;;;22.97;;
7575;SDS011;3829;50.798;4.358;2022-11-20T09:16:35;52.50;;;23.97;;
7575;SDS011;3829;50.798;4.358;2022-11-20T09:19:00;55.10;;;23.23;;
7575;SDS011;3829;50.798;4.358;2022-11-20T09:21:26;50.27;;;22.60;;
7575;SDS011;3829;50.798;4.358;2022-11-20T09:23:51;45.83;;;21.17;;
7575;SDS011;3829;50.798;4.358;2022-11-20T09:26:17;50.53;;;22.13;;
7575;SDS011;3829;50.798;4.358;2022-11-20T09:28:42;48.30;;;22.00;;
7575;SDS011;3829;50.798;4.358;2022-11-20T09:31:09;47.63;;;21.17;;
7575;SDS011;3829;50.798;4.358;2022-11-20T09:33:42;45.97;;;19.57;;
7575;SDS011;3829;50.798;4.358;2022-11-20T09:36:08;37.93;;;19.93;;
7575;SDS011;3829;50.798;4.358;2022-11-20T09:38:33;40.60;;;19.60;;
7575;SDS011;3829;50.798;4.358;2022-11-20T09:41:05;38.00;;;18.43;;
7575;SDS011;3829;50.798;4.358;2022-11-20T09:43:46;35.83;;;17.40;;
7575;SDS011;3829;50.798;4.358;2022-11-20T09:46:44;38.40;;;16.73;;
7575;SDS011;3829;50.798;4.358;2022-11-20T09:51:58;25.03;;;13.80;;
7575;SDS011;3829;50.798;4.358;2022-11-20T09:54:27;23.67;;;12.23;;
7575;SDS011;3829;50.798;4.358;2022-11-20T09:57:08;23.60;;;14.23;;
7575;SDS011;3829;50.798;4.358;2022-11-20T09:59:49;25.87;;;13.03;;
7575;SDS011;3829;50.798;4.358;2022-11-20T10:02:29;22.97;;;11.07;;
7575;SDS011;3829;50.798;4.358;2022-11-20T10:10:42;18.63;;;10.13;;
7575;SDS011;3829;50.798;4.358;2022-11-20T10:15:56;20.73;;;9.37;;
7575;SDS011;3829;50.798;4.358;2022-11-20T10:18:39;13.87;;;8.57;;
7575;SDS011;3829;50.798;4.358;2022-11-20T10:24:05;15.80;;;7.67;;
7575;SDS011;3829;50.798;4.358;2022-11-20T10:27:02;15.53;;;7.63;;
7575;SDS011;3829;50.798;4.358;2022-11-20T10:29:45;13.30;;;7.03;;
7575;SDS011;3829;50.798;4.358;2022-11-20T10:32:22;13.03;;;6.37;;
7575;SDS011;3829;50.798;4.358;2022-11-20T10:37:26;10.43;;;5.77;;
7575;SDS011;3829;50.798;4.358;2022-11-20T10:40:09;11.87;;;6.30;;
7575;SDS011;3829;50.798;4.358;2022-11-20T10:42:46;10.60;;;5.10;;
7575;SDS011;3829;50.798;4.358;2022-11-20T10:47:54;8.07;;;4.70;;
7575;SDS011;3829;50.798;4.358;2022-11-20T10:50:36;9.67;;;5.10;;
7575;SDS011;3829;50.798;4.358;2022-11-20T10:56:08;6.97;;;4.33;;
7575;SDS011;3829;50.798;4.358;2022-11-20T10:58:51;8.80;;;4.47;;
7575;SDS011;3829;50.798;4.358;2022-11-20T11:01:41;7.40;;;3.97;;
7575;SDS011;3829;50.798;4.358;2022-11-20T11:07:07;4.87;;;3.40;;
7575;SDS011;3829;50.798;4.358;2022-11-20T11:09:42;9.27;;;3.90;;
7575;SDS011;3829;50.798;4.358;2022-11-20T11:12:09;7.67;;;3.23;;
7575;SDS011;3829;50.798;4.358;2022-11-20T11:14:42;9.30;;;4.13;;
7575;SDS011;3829;50.798;4.358;2022-11-20T11:17:18;8.03;;;4.03;;
7575;SDS011;3829;50.798;4.358;2022-11-20T11:19:45;8.33;;;3.63;;
7575;SDS011;3829;50.798;4.358;2022-11-20T11:22:16;9.57;;;4.60;;
7575;SDS011;3829;50.798;4.358;2022-11-20T11:24:51;6.93;;;3.10;;
7575;SDS011;3829;50.798;4.358;2022-11-20T11:27:17;10.93;;;3.57;;
7575;SDS011;3829;50.798;4.358;2022-11-20T11:29:43;8.60;;;3.07;;
7575;SDS011;3829;50.798;4.358;2022-11-20T11:32:13;6.20;;;2.80;;
7575;SDS011;3829;50.798;4.358;2022-11-20T11:34:43;13.03;;;3.63;;
7575;SDS011;3829;50.798;4.358;2022-11-20T11:37:19;10.07;;;4.17;;
7575;SDS011;3829;50.798;4.358;2022-11-20T11:39:48;6.63;;;3.10;;
7575;SDS011;3829;50.798;4.358;2022-11-20T11:42:16;14.37;;;4.23;;
7575;SDS011;3829;50.798;4.358;2022-11-20T11:44:44;5.80;;;3.57;;
7575;SDS011;3829;50.798;4.358;2022-11-20T11:50:13;6.57;;;3.17;;
7575;SDS011;3829;50.798;4.358;2022-11-20T11:55:12;5.77;;;3.33;;
7575;SDS011;3829;50.798;4.358;2022-11-20T11:58:09;5.87;;;2.83;;
7575;SDS011;3829;50.798;4.358;2022-11-20T12:00:41;5.03;;;3.30;;
7575;SDS011;3829;50.798;4.358;2022-11-20T12:03:34;8.07;;;3.30;;
7575;SDS011;3829;50.798;4.358;2022-11-20T12:06:04;10.70;;;3.43;;
7575;SDS011;3829;50.798;4.358;2022-11-20T12:11:11;9.90;;;3.20;;
7575;SDS011;3829;50.798;4.358;2022-11-20T12:13:56;9.40;;;3.10;;
7575;SDS011;3829;50.798;4.358;2022-11-20T12:16:44;9.77;;;3.93;;
7575;SDS011;3829;50.798;4.358;2022-11-20T12:19:11;7.77;;;3.40;;
7575;SDS011;3829;50.798;4.358;2022-11-20T12:24:15;9.47;;;3.40;;
7575;SDS011;3829;50.798;4.358;2022-11-20T12:27:27;6.27;;;3.30;;
7575;SDS011;3829;50.798;4.358;2022-11-20T12:30:09;7.17;;;3.37;;
7575;SDS011;3829;50.798;4.358;2022-11-20T12:40:39;8.47;;;3.80;;
7575;SDS011;3829;50.798;4.358;2022-11-20T12:43:21;6.20;;;3.20;;
7575;SDS011;3829;50.798;4.358;2022-11-20T12:56:33;10.50;;;4.23;;
7575;SDS011;3829;50.798;4.358;2022-11-20T13:04:55;10.90;;;4.63;;
7575;SDS011;3829;50.798;4.358;2022-11-20T13:07:25;8.67;;;3.83;;
7575;SDS011;3829;50.798;4.358;2022-11-20T13:09:53;7.17;;;3.30;;
7575;SDS011;3829;50.798;4.358;2022-11-20T13:12:30;6.63;;;3.17;;
7575;SDS011;3829;50.798;4.358;2022-11-20T13:17:47;6.53;;;3.80;;
7575;SDS011;3829;50.798;4.358;2022-11-20T13:20:19;8.77;;;3.70;;
7575;SDS011;3829;50.798;4.358;2022-11-20T13:22:49;5.57;;;3.87;;
7575;SDS011;3829;50.798;4.358;2022-11-20T13:25:33;8.80;;;5.27;;
7575;SDS011;3829;50.798;4.358;2022-11-20T13:28:00;5.10;;;3.40;;
7575;SDS011;3829;50.798;4.358;2022-11-20T13:30:52;8.27;;;3.63;;
7575;SDS011;3829;50.798;4.358;2022-11-20T13:38:46;6.10;;;3.03;;
7575;SDS011;3829;50.798;4.358;2022-11-20T13:41:23;8.17;;;3.73;;
7575;SDS011;3829;50.798;4.358;2022-11-20T13:43:53;5.57;;;2.90;;
7575;SDS011;3829;50.798;4.358;2022-11-20T13:46:34;6.60;;;3.13;;
7575;SDS011;3829;50.798;4.358;2022-11-20T13:49:05;6.83;;;3.60;;
7575;SDS011;3829;50.798;4.358;2022-11-20T14:00:13;6.17;;;3.17;;
7575;SDS011;3829;50.798;4.358;2022-11-20T14:02:44;6.07;;;2.73;;
7575;SDS011;3829;50.798;4.358;2022-11-20T14:05:27;4.47;;;2.43;;
7575;SDS011;3829;50.798;4.358;2022-11-20T14:07:55;5.83;;;2.67;;
7575;SDS011;3829;50.798;4.358;2022-11-20T14:10:26;8.13;;;2.57;;
7575;SDS011;3829;50.798;4.358;2022-11-20T14:12:53;1.93;;;1.63;;
7575;SDS011;3829;50.798;4.358;2022-11-20T14:17:52;3.33;;;2.60;;
7575;SDS011;3829;50.798;4.358;2022-11-20T14:20:17;6.57;;;2.97;;
7575;SDS011;3829;50.798;4.358;2022-11-20T14:22:51;3.73;;;2.37;;
7575;SDS011;3829;50.798;4.358;2022-11-20T14:25:19;4.03;;;2.77;;
7575;SDS011;3829;50.798;4.358;2022-11-20T14:27:52;4.53;;;3.00;;
7575;SDS011;3829;50.798;4.358;2022-11-20T14:30:20;3.37;;;2.47;;
7575;SDS011;3829;50.798;4.358;2022-11-20T14:32:48;4.17;;;2.13;;
7575;SDS011;3829;50.798;4.358;2022-11-20T14:35:57;5.10;;;2.93;;
7575;SDS011;3829;50.798;4.358;2022-11-20T14:38:09;3.40;;;2.47;;
7575;SDS011;3829;50.798;4.358;2022-11-20T14:40:38;7.23;;;3.33;;
7575;SDS011;3829;50.798;4.358;2022-11-20T14:43:16;4.50;;;2.90;;
7575;SDS011;3829;50.798;4.358;2022-11-20T14:45:49;5.60;;;3.37;;
7575;SDS011;3829;50.798;4.358;2022-11-20T14:48:43;6.23;;;3.77;;
7575;SDS011;3829;50.798;4.358;2022-11-20T14:51:36;6.03;;;2.50;;
7575;SDS011;3829;50.798;4.358;2022-11-20T14:54:16;9.13;;;3.20;;
7575;SDS011;3829;50.798;4.358;2022-11-20T14:56:59;5.90;;;4.00;;
7575;SDS011;3829;50.798;4.358;2022-11-20T14:59:27;6.03;;;3.70;;
7575;SDS011;3829;50.798;4.358;2022-11-20T15:01:58;5.73;;;3.30;;
7575;SDS011;3829;50.798;4.358;2022-11-20T15:04:26;8.53;;;3.70;;
7575;SDS011;3829;50.798;4.358;2022-11-20T15:06:52;6.80;;;3.20;;
7575;SDS011;3829;50.798;4.358;2022-11-20T15:09:21;4.17;;;3.13;;
7575;SDS011;3829;50.798;4.358;2022-11-20T15:12:20;4.30;;;3.23;;
7575;SDS011;3829;50.798;4.358;2022-11-20T15:14:42;6.97;;;3.20;;
7575;SDS011;3829;50.798;4.358;2022-11-20T15:17:09;9.67;;;4.23;;
7575;SDS011;3829;50.798;4.358;2022-11-20T15:19:35;5.13;;;3.53;;
7575;SDS011;3829;50.798;4.358;2022-11-20T15:22:01;4.83;;;3.80;;
7575;SDS011;3829;50.798;4.358;2022-11-20T15:24:27;10.63;;;3.60;;
7575;SDS011;3829;50.798;4.358;2022-11-20T15:26:52;5.67;;;3.07;;
7575;SDS011;3829;50.798;4.358;2022-11-20T15:29:19;5.57;;;3.53;;
7575;SDS011;3829;50.798;4.358;2022-11-20T15:31:46;4.40;;;3.57;;
7575;SDS011;3829;50.798;4.358;2022-11-20T15:34:12;9.83;;;4.20;;
7575;SDS011;3829;50.798;4.358;2022-11-20T15:36:41;8.53;;;4.17;;
7575;SDS011;3829;50.798;4.358;2022-11-20T15:39:08;10.07;;;4.37;;
7575;SDS011;3829;50.798;4.358;2022-11-20T15:41:34;7.60;;;4.33;;
7575;SDS011;3829;50.798;4.358;2022-11-20T15:44:01;10.77;;;4.47;;
7575;SDS011;3829;50.798;4.358;2022-11-20T15:46:28;8.80;;;4.00;;
7575;SDS011;3829;50.798;4.358;2022-11-20T15:48:58;8.67;;;3.80;;
7575;SDS011;3829;50.798;4.358;2022-11-20T15:51:35;6.73;;;3.80;;
7575;SDS011;3829;50.798;4.358;2022-11-20T15:54:21;9.40;;;4.43;;
7575;SDS011;3829;50.798;4.358;2022-11-20T15:56:48;7.83;;;3.77;;
7575;SDS011;3829;50.798;4.358;2022-11-20T15:59:14;13.97;;;3.90;;
7575;SDS011;3829;50.798;4.358;2022-11-20T16:01:40;10.90;;;4.17;;
7575;SDS011;3829;50.798;4.358;2022-11-20T16:04:10;9.03;;;3.10;;
7575;SDS011;3829;50.798;4.358;2022-11-20T16:06:37;9.33;;;4.17;;
7575;SDS011;3829;50.798;4.358;2022-11-20T16:09:02;11.50;;;3.80;;
7575;SDS011;3829;50.798;4.358;2022-11-20T16:11:28;7.17;;;3.83;;
7575;SDS011;3829;50.798;4.358;2022-11-20T16:13:54;14.07;;;3.93;;
7575;SDS011;3829;50.798;4.358;2022-11-20T16:16:38;14.50;;;3.87;;
7575;SDS011;3829;50.798;4.358;2022-11-20T16:19:05;13.63;;;4.13;;
7575;SDS011;3829;50.798;4.358;2022-11-20T16:21:34;9.07;;;3.70;;
7575;SDS011;3829;50.798;4.358;2022-11-20T16:24:03;11.53;;;4.00;;
7575;SDS011;3829;50.798;4.358;2022-11-20T16:26:30;13.00;;;3.40;;
7575;SDS011;3829;50.798;4.358;2022-11-20T16:28:58;14.70;;;4.80;;
7575;SDS011;3829;50.798;4.358;2022-11-20T16:31:24;14.90;;;3.93;;
7575;SDS011;3829;50.798;4.358;2022-11-20T16:33:53;11.63;;;3.80;;
7575;SDS011;3829;50.798;4.358;2022-11-20T16:36:21;21.27;;;3.93;;